createdAt,value
2022-08-16T00:01:34.213Z,78.81
2022-08-16T00:04:10.560Z,78.93
2022-08-16T00:06:53.174Z,79.17
2022-08-16T00:09:26.718Z,79.15
2022-08-16T00:12:17.814Z,79.83
2022-08-16T00:15:05.531Z,79.57
2022-08-16T00:17:56.003Z,81.63
2022-08-16T00:20:25.040Z,81.70
2022-08-16T00:22:52.191Z,81.24
2022-08-16T00:26:33.364Z,81.92
2022-08-16T00:28:09.207Z,81.55
2022-08-16T00:30:38.323Z,82.58
2022-08-16T00:33:06.167Z,82.08
2022-08-16T00:35:37.513Z,81.83
2022-08-16T00:38:43.312Z,81.44
2022-08-16T00:40:54.810Z,82.76
2022-08-16T00:43:40.790Z,83.25
2022-08-16T00:46:35.512Z,83.16
2022-08-16T00:49:17.618Z,83.02
2022-08-16T00:51:46.267Z,82.34
2022-08-16T00:54:13.333Z,82.92
2022-08-16T00:56:58.480Z,83.66
2022-08-16T00:59:29.001Z,83.09
2022-08-16T01:01:56.154Z,82.34
2022-08-16T01:04:30.056Z,81.94
2022-08-16T01:07:01.744Z,83.50
2022-08-16T01:09:33.831Z,83.28
2022-08-16T01:12:03.205Z,83.21
2022-08-16T01:14:32.863Z,83.32
2022-08-16T01:16:59.849Z,83.25
2022-08-16T01:19:34.894Z,84.01
2022-08-16T01:22:48.140Z,85.62
2022-08-16T01:25:06.759Z,85.55
2022-08-16T01:27:39.193Z,85.96
2022-08-16T01:30:20.084Z,85.69
2022-08-16T01:33:01.166Z,85.54
2022-08-16T01:35:35.365Z,85.43
2022-08-16T01:38:19.732Z,86.65
2022-08-16T01:40:47.812Z,86.89
2022-08-16T01:43:14.666Z,86.60
2022-08-16T01:45:43.339Z,86.05
2022-08-16T01:48:19.810Z,85.57
2022-08-16T01:51:09.680Z,84.18
2022-08-16T01:53:36.467Z,84.45
2022-08-16T01:56:07.483Z,84.47
2022-08-16T01:58:50.287Z,84.11
2022-08-16T02:01:18.149Z,85.58
2022-08-16T02:03:45.184Z,84.67
2022-08-16T02:06:33.783Z,84.39
2022-08-16T02:09:02.440Z,84.54
2022-08-16T02:11:48.871Z,84.94
2022-08-16T02:14:21.639Z,85.15
2022-08-16T02:16:48.551Z,85.97
2022-08-16T02:19:17.534Z,86.57
2022-08-16T02:22:08.943Z,86.36
2022-08-16T02:24:41.997Z,85.97
2022-08-16T02:27:12.589Z,86.15
2022-08-16T02:29:41.254Z,85.62
2022-08-16T02:32:50.678Z,85.92
2022-08-16T02:34:57.231Z,86.67
2022-08-16T02:37:23.762Z,86.89
2022-08-16T02:40:12.058Z,87.06
2022-08-16T02:42:45.191Z,87.27
2022-08-16T02:45:12.611Z,88.70
2022-08-16T02:48:01.367Z,88.99
2022-08-16T02:50:54.376Z,88.12
2022-08-16T02:53:12.944Z,86.86
2022-08-16T02:55:41.332Z,87.88
2022-08-16T02:58:08.661Z,88.13
2022-08-16T03:00:36.160Z,88.13
2022-08-16T03:03:04.566Z,87.62
2022-08-16T03:05:37.163Z,87.99
2022-08-16T03:08:05.267Z,88.98
2022-08-16T03:10:52.773Z,90.02
2022-08-16T03:13:20.638Z,90.95
2022-08-16T03:15:49.569Z,92.20
2022-08-16T03:18:34.250Z,91.36
2022-08-16T03:21:04.338Z,89.91
2022-08-16T03:23:35.569Z,90.10
2022-08-16T03:26:02.731Z,89.49
2022-08-16T03:28:29.245Z,90.38
2022-08-16T03:30:56.924Z,89.38
2022-08-16T03:33:23.892Z,89.03
2022-08-16T03:35:57.175Z,89.41
2022-08-16T03:38:34.445Z,88.36
2022-08-16T03:41:03.350Z,89.78
2022-08-16T03:43:51.085Z,90.51
2022-08-16T03:46:44.383Z,91.88
2022-08-16T03:49:10.728Z,91.97
2022-08-16T03:51:40.303Z,91.75
2022-08-16T03:54:10.371Z,91.36
2022-08-16T03:56:39.489Z,91.05
2022-08-16T03:59:24.060Z,90.20
2022-08-16T04:01:53.612Z,89.52
2022-08-16T04:04:32.617Z,88.48
2022-08-16T04:07:03.366Z,87.86
2022-08-16T04:09:35.381Z,88.37
2022-08-16T04:12:11.246Z,88.29
2022-08-16T04:14:51.715Z,88.10
2022-08-16T04:17:18.441Z,87.79
2022-08-16T04:19:46.582Z,87.71
2022-08-16T04:22:13.781Z,87.60
2022-08-16T04:24:43.746Z,88.12
2022-08-16T04:27:21.107Z,89.77
2022-08-16T04:29:47.593Z,89.83
2022-08-16T04:32:19.633Z,91.12
2022-08-16T04:34:47.005Z,90.07
2022-08-16T04:37:14.545Z,90.45
2022-08-16T04:39:46.938Z,89.45
2022-08-16T04:42:25.808Z,89.03
2022-08-16T04:44:55.482Z,89.56
2022-08-16T04:47:33.471Z,89.95
2022-08-16T04:50:14.438Z,90.94
2022-08-16T04:52:44.294Z,91.52
2022-08-16T04:55:15.763Z,90.66
2022-08-16T04:57:44.218Z,90.58
2022-08-16T05:00:31.041Z,90.88
2022-08-16T05:03:02.918Z,91.91
2022-08-16T05:05:55.560Z,91.50
2022-08-16T05:08:27.961Z,92.21
2022-08-16T05:11:05.209Z,92.11
2022-08-16T05:13:40.277Z,92.41
2022-08-16T05:16:12.036Z,92.04
2022-08-16T05:18:47.973Z,90.83
2022-08-16T05:21:14.831Z,91.52
2022-08-16T05:23:43.422Z,91.03
2022-08-16T05:26:19.882Z,90.52
2022-08-16T05:28:55.615Z,89.51
2022-08-16T05:31:23.967Z,88.82
2022-08-16T05:33:56.746Z,87.09
2022-08-16T05:36:23.282Z,86.71
2022-08-16T05:39:01.329Z,86.17
2022-08-16T05:41:29.186Z,86.66
2022-08-16T05:44:00.213Z,86.14
2022-08-16T05:46:32.061Z,84.97
2022-08-16T05:49:05.849Z,84.66
2022-08-16T05:51:38.456Z,83.34
2022-08-16T05:54:06.008Z,82.98
2022-08-16T05:56:32.530Z,83.24
2022-08-16T05:59:00.769Z,82.51
2022-08-16T06:01:28.079Z,81.86
2022-08-16T06:03:59.701Z,81.75
2022-08-16T06:06:28.954Z,81.64
2022-08-16T06:08:55.869Z,81.39
2022-08-16T06:11:22.389Z,82.34
2022-08-16T06:13:52.183Z,82.86
2022-08-16T06:16:22.207Z,82.82
2022-08-16T06:18:53.724Z,82.04
2022-08-16T06:21:22.733Z,82.11
2022-08-16T06:23:51.120Z,81.67
2022-08-16T06:26:21.552Z,82.17
2022-08-16T06:28:48.215Z,80.81
2022-08-16T06:31:16.755Z,80.01
2022-08-16T06:33:44.631Z,80.12
2022-08-16T06:36:14.195Z,79.79
2022-08-16T06:38:55.805Z,79.33
2022-08-16T06:41:24.305Z,78.87
2022-08-16T06:43:54.210Z,78.26
2022-08-16T06:46:31.753Z,78.74
2022-08-16T06:48:59.446Z,78.08
2022-08-16T06:51:26.012Z,77.36
2022-08-16T06:54:14.265Z,77.80
2022-08-16T06:56:42.415Z,77.04
2022-08-16T06:59:09.322Z,77.57
2022-08-16T07:01:46.239Z,77.38
2022-08-16T07:04:31.650Z,78.20
2022-08-16T07:06:59.674Z,78.71
2022-08-16T07:09:26.333Z,78.38
2022-08-16T07:11:56.407Z,79.58
2022-08-16T07:14:30.652Z,77.53
2022-08-16T07:16:59.201Z,77.68
2022-08-16T07:19:33.508Z,77.09
2022-08-16T07:22:38.139Z,77.01
2022-08-16T07:25:12.144Z,78.36
2022-08-16T07:27:39.408Z,77.58
2022-08-16T07:30:45.923Z,76.70
2022-08-16T07:32:57.609Z,77.00
2022-08-16T07:35:25.296Z,76.48
2022-08-16T07:37:52.444Z,76.21
2022-08-16T07:40:31.921Z,76.18
2022-08-16T07:43:06.139Z,76.68
2022-08-16T07:45:34.758Z,76.64
2022-08-16T07:48:11.479Z,77.18
2022-08-16T07:50:57.730Z,74.99
2022-08-16T07:53:28.802Z,74.43
2022-08-16T07:55:56.519Z,73.96
2022-08-16T07:58:33.913Z,73.75
2022-08-16T08:01:10.069Z,73.98
2022-08-16T08:03:39.317Z,75.27
2022-08-16T08:06:10.238Z,73.86
2022-08-16T08:08:50.777Z,72.94
2022-08-16T08:11:19.595Z,71.41
2022-08-16T08:13:47.951Z,71.74
2022-08-16T08:16:18.542Z,70.83
2022-08-16T08:18:50.322Z,71.89
2022-08-16T08:21:26.386Z,71.71
2022-08-16T08:23:56.491Z,70.56
2022-08-16T08:26:24.350Z,69.67
2022-08-16T08:28:51.491Z,69.19
2022-08-16T08:31:18.554Z,68.84
2022-08-16T08:33:51.301Z,69.85
2022-08-16T08:36:33.558Z,68.96
2022-08-16T08:39:00.727Z,69.69
2022-08-16T08:41:29.435Z,68.82
2022-08-16T08:43:57.937Z,70.71
2022-08-16T08:46:25.464Z,67.98
2022-08-16T08:48:59.886Z,68.07
2022-08-16T08:51:35.916Z,67.26
2022-08-16T08:54:09.509Z,68.27
2022-08-16T08:56:37.775Z,69.18
2022-08-16T08:59:20.176Z,66.49
2022-08-16T09:01:56.557Z,65.76
2022-08-16T09:04:26.989Z,64.88
2022-08-16T09:06:54.433Z,65.65
2022-08-16T09:09:22.130Z,67.22
2022-08-16T09:11:53.450Z,66.69
2022-08-16T09:14:49.686Z,62.51
2022-08-16T09:20:16.622Z,64.02
2022-08-16T09:22:44.064Z,62.78
2022-08-16T09:25:23.040Z,63.71
2022-08-16T09:27:58.081Z,65.87
2022-08-16T09:30:33.642Z,62.74
2022-08-16T09:33:06.754Z,63.51
2022-08-16T09:35:38.632Z,62.52
2022-08-16T09:38:08.362Z,61.22
2022-08-16T09:40:43.269Z,58.03
2022-08-16T09:43:46.323Z,57.06
2022-08-16T09:46:00.013Z,59.99
2022-08-16T09:48:36.955Z,60.17
2022-08-16T09:51:13.917Z,57.61
2022-08-16T09:53:41.101Z,58.22
2022-08-16T09:56:26.571Z,55.21
2022-08-16T09:59:03.935Z,57.06
2022-08-16T10:01:36.471Z,53.96
2022-08-16T10:04:29.981Z,54.95
2022-08-16T10:06:55.642Z,55.86
2022-08-16T10:09:25.226Z,55.06
2022-08-16T10:12:11.564Z,53.66
2022-08-16T10:14:46.220Z,56.43
2022-08-16T10:17:13.242Z,54.71
2022-08-16T10:19:39.787Z,52.81
2022-08-16T10:22:06.316Z,49.88
2022-08-16T10:24:33.705Z,51.47
2022-08-16T10:27:25.602Z,53.11
2022-08-16T10:30:00.556Z,50.81
2022-08-16T10:32:33.073Z,52.66
2022-08-16T10:35:00.349Z,50.35
2022-08-16T10:37:32.557Z,47.42
2022-08-16T10:40:04.700Z,50.13
2022-08-16T10:42:31.296Z,50.67
2022-08-16T10:44:57.829Z,49.71
2022-08-16T10:47:24.454Z,48.66
2022-08-16T10:49:51.615Z,46.76
2022-08-16T10:52:20.073Z,48.99
2022-08-16T10:57:34.984Z,47.86
2022-08-16T11:00:06.545Z,47.71
2022-08-16T11:02:58.007Z,46.57
2022-08-16T11:05:58.664Z,47.02
2022-08-16T11:08:16.384Z,48.29
2022-08-16T11:11:05.217Z,48.40
2022-08-16T11:17:00.741Z,43.00
2022-08-16T11:19:12.573Z,46.98
2022-08-16T11:24:42.019Z,42.85
2022-08-16T11:27:23.612Z,45.40
2022-08-16T11:29:55.091Z,44.69
2022-08-16T11:32:32.443Z,43.17
2022-08-16T11:35:13.824Z,43.32
2022-08-16T11:40:38.810Z,41.91
2022-08-16T11:43:10.098Z,40.00
2022-08-16T11:45:37.722Z,43.72
2022-08-16T11:48:05.082Z,42.47
2022-08-16T11:50:33.822Z,43.84
2022-08-16T11:53:06.106Z,44.00
2022-08-16T11:55:38.194Z,43.25
2022-08-16T11:58:07.135Z,43.63
2022-08-16T12:00:51.040Z,41.79
2022-08-16T12:03:24.966Z,44.48
2022-08-16T12:05:58.923Z,44.89
2022-08-16T12:08:27.302Z,45.67
2022-08-16T12:10:54.230Z,44.09
2022-08-16T12:13:26.961Z,43.62
2022-08-16T12:15:53.721Z,43.30
2022-08-16T12:18:21.560Z,41.82
2022-08-16T12:20:48.219Z,39.47
2022-08-16T12:23:15.114Z,39.60
2022-08-16T12:25:44.793Z,42.26
2022-08-16T12:28:12.769Z,40.84
2022-08-16T12:30:44.882Z,40.31
2022-08-16T12:33:25.493Z,40.17
2022-08-16T12:35:53.131Z,40.30
2022-08-16T12:38:41.173Z,39.80
2022-08-16T12:41:06.747Z,39.38
2022-08-16T12:43:34.953Z,41.36
2022-08-16T12:46:02.597Z,40.06
2022-08-16T12:48:50.320Z,41.10
2022-08-16T12:51:24.179Z,41.88
2022-08-16T12:53:58.124Z,44.13
2022-08-16T12:56:28.411Z,37.38
2022-08-16T12:58:57.732Z,39.12
2022-08-16T13:01:28.997Z,37.55
2022-08-16T13:04:20.389Z,40.06
2022-08-16T13:06:45.199Z,40.27
2022-08-16T13:09:21.489Z,39.78
2022-08-16T13:12:01.687Z,36.67
2022-08-16T13:14:38.052Z,36.95
2022-08-16T13:17:09.487Z,36.33
2022-08-16T13:20:06.199Z,37.89
2022-08-16T13:22:25.341Z,37.36
2022-08-16T13:24:53.671Z,35.38
2022-08-16T13:28:01.978Z,34.81
2022-08-16T13:30:21.857Z,39.38
2022-08-16T13:32:55.859Z,37.05
2022-08-16T13:35:23.952Z,37.46
2022-08-16T13:37:52.217Z,35.50
2022-08-16T13:40:21.220Z,34.85
2022-08-16T13:42:49.618Z,35.09
2022-08-16T13:45:17.115Z,35.64
2022-08-16T13:47:46.105Z,34.92
2022-08-16T13:50:17.387Z,33.40
2022-08-16T13:52:58.726Z,34.19
2022-08-16T13:55:25.385Z,36.83
2022-08-16T13:58:37.757Z,36.32
2022-08-16T14:00:42.344Z,36.97
2022-08-16T14:03:09.322Z,37.48
2022-08-16T14:05:37.643Z,34.63
2022-08-16T14:08:04.205Z,34.85
2022-08-16T14:10:32.338Z,35.16
2022-08-16T14:13:00.950Z,33.88
2022-08-16T14:15:29.202Z,34.46
2022-08-16T14:18:23.345Z,34.73
2022-08-16T14:20:48.645Z,33.23
2022-08-16T14:23:23.663Z,33.52
2022-08-16T14:25:54.280Z,35.98
2022-08-16T14:28:21.928Z,34.77
2022-08-16T14:30:50.707Z,35.79
2022-08-16T14:33:18.710Z,34.63
2022-08-16T14:35:48.840Z,34.69
2022-08-16T14:38:24.038Z,34.87
2022-08-16T14:40:55.504Z,34.96
2022-08-16T14:43:24.860Z,35.52
2022-08-16T14:45:51.626Z,35.03
2022-08-16T14:48:25.902Z,34.74
2022-08-16T14:50:54.154Z,34.07
2022-08-16T14:53:22.915Z,33.22
2022-08-16T14:55:49.535Z,34.21
2022-08-16T14:58:18.894Z,35.38
2022-08-16T15:00:47.778Z,34.89
2022-08-16T15:03:21.724Z,34.45
2022-08-16T15:05:49.790Z,33.19
2022-08-16T15:08:21.379Z,34.10
2022-08-16T15:11:03.637Z,35.10
2022-08-16T15:13:30.169Z,35.07
2022-08-16T15:16:02.275Z,35.17
2022-08-16T15:18:31.778Z,33.72
2022-08-16T15:20:59.946Z,35.35
2022-08-16T15:23:28.361Z,34.48
2022-08-16T15:26:02.998Z,34.73
2022-08-16T15:28:32.671Z,37.54
2022-08-16T15:31:05.988Z,36.96
2022-08-16T15:33:43.594Z,38.16
2022-08-16T15:36:18.075Z,36.93
2022-08-16T15:39:02.360Z,37.56
2022-08-16T15:41:43.052Z,38.90
2022-08-16T15:44:21.142Z,38.25
2022-08-16T15:46:58.968Z,37.70
2022-08-16T15:49:34.762Z,37.48
2022-08-16T15:52:12.097Z,37.13
2022-08-16T15:54:51.492Z,38.25
2022-08-16T15:57:19.760Z,39.43
2022-08-16T15:59:52.434Z,39.07
2022-08-16T16:02:29.348Z,39.41
2022-08-16T16:05:00.936Z,39.71
2022-08-16T16:07:30.307Z,37.69
2022-08-16T16:09:58.900Z,39.05
2022-08-16T16:12:51.019Z,39.42
2022-08-16T16:15:17.657Z,40.52
2022-08-16T16:17:44.193Z,39.52
2022-08-16T16:20:18.240Z,41.32
2022-08-16T16:22:46.628Z,41.50
2022-08-16T16:25:15.842Z,41.76
2022-08-16T16:27:44.185Z,41.83
2022-08-16T16:30:37.440Z,41.65
2022-08-16T16:33:01.729Z,42.54
2022-08-16T16:35:32.739Z,42.15
2022-08-16T16:37:59.978Z,40.91
2022-08-16T16:40:32.554Z,42.31
2022-08-16T16:43:00.063Z,40.70
2022-08-16T16:45:34.716Z,39.75
2022-08-16T16:48:12.275Z,42.75
2022-08-16T16:50:44.450Z,41.98
2022-08-16T16:53:16.778Z,39.82
2022-08-16T16:55:51.878Z,40.96
2022-08-16T16:58:43.383Z,40.85
2022-08-16T17:01:20.436Z,41.53
2022-08-16T17:03:53.671Z,42.38
2022-08-16T17:06:20.775Z,40.49
2022-08-16T17:08:47.649Z,40.77
2022-08-16T17:11:16.064Z,41.67
2022-08-16T17:13:44.661Z,40.76
2022-08-16T17:16:17.121Z,40.92
2022-08-16T17:19:16.626Z,40.56
2022-08-16T17:21:34.383Z,42.80
2022-08-16T17:24:18.322Z,41.21
2022-08-16T17:26:48.755Z,41.93
2022-08-16T17:29:15.851Z,41.35
2022-08-16T17:31:43.508Z,41.27
2022-08-16T17:34:29.224Z,40.79
2022-08-16T17:37:00.623Z,42.13
2022-08-16T17:39:32.863Z,43.68
2022-08-16T17:42:02.034Z,42.71
2022-08-16T17:44:28.753Z,41.22
2022-08-16T17:46:55.236Z,42.62
2022-08-16T17:49:22.499Z,42.32
2022-08-16T17:51:49.065Z,41.93
2022-08-16T17:54:21.411Z,42.85
2022-08-16T17:57:00.490Z,42.45
2022-08-16T17:59:28.444Z,41.91
2022-08-16T18:01:56.239Z,42.41
2022-08-16T18:04:48.913Z,42.55
2022-08-16T18:07:10.742Z,42.16
2022-08-16T18:09:41.019Z,42.52
2022-08-16T18:12:45.055Z,41.59
2022-08-16T18:15:07.622Z,42.32
2022-08-16T18:17:34.427Z,42.60
2022-08-16T18:20:01.030Z,43.15
2022-08-16T18:22:30.959Z,45.52
2022-08-16T18:24:58.410Z,44.79
2022-08-16T18:27:27.247Z,45.72
2022-08-16T18:29:54.339Z,45.23
2022-08-16T18:32:23.162Z,45.65
2022-08-16T18:34:52.775Z,46.73
2022-08-16T18:37:21.587Z,47.29
2022-08-16T18:39:48.177Z,47.69
2022-08-16T18:42:14.913Z,47.31
2022-08-16T18:44:44.123Z,48.52
2022-08-16T18:47:11.193Z,48.00
2022-08-16T18:49:37.799Z,48.36
2022-08-16T18:52:04.942Z,48.26
2022-08-16T18:54:33.654Z,48.14
2022-08-16T18:57:03.487Z,49.29
2022-08-16T18:59:33.214Z,49.08
2022-08-16T19:02:04.334Z,50.65
2022-08-16T19:04:56.838Z,50.35
2022-08-16T19:07:30.473Z,50.58
2022-08-16T19:09:58.207Z,51.32
2022-08-16T19:12:37.758Z,52.45
2022-08-16T19:15:14.417Z,53.23
2022-08-16T19:17:44.004Z,52.95
2022-08-16T19:20:11.760Z,52.91
2022-08-16T19:23:02.138Z,52.38
2022-08-16T19:25:46.770Z,52.39
2022-08-16T19:28:33.327Z,53.38
2022-08-16T19:31:05.722Z,53.39
2022-08-16T19:33:32.673Z,54.00
2022-08-16T19:35:59.696Z,53.52
2022-08-16T19:38:27.691Z,53.73
2022-08-16T19:40:54.298Z,53.30
2022-08-16T19:43:21.998Z,54.25
2022-08-16T19:45:49.193Z,54.32
2022-08-16T19:48:15.725Z,54.26
2022-08-16T19:50:42.279Z,54.17
2022-08-16T19:53:19.281Z,54.29
2022-08-16T19:55:47.330Z,55.73
2022-08-16T19:58:15.477Z,54.94
2022-08-16T20:00:43.514Z,55.54
2022-08-16T20:03:16.014Z,54.62
2022-08-16T20:05:43.825Z,54.82
2022-08-16T20:08:11.531Z,55.17
2022-08-16T20:10:40.861Z,55.16
2022-08-16T20:13:12.987Z,56.38
2022-08-16T20:15:40.958Z,56.00
2022-08-16T20:18:17.237Z,55.78
2022-08-16T20:20:51.617Z,56.50
2022-08-16T20:23:24.802Z,57.36
2022-08-16T20:25:55.856Z,57.65
2022-08-16T20:28:40.633Z,57.13
2022-08-16T20:31:11.466Z,58.27
2022-08-16T20:33:38.008Z,57.25
2022-08-16T20:36:04.559Z,58.08
2022-08-16T20:38:31.165Z,57.17
2022-08-16T20:40:57.828Z,59.55
2022-08-16T20:43:24.377Z,59.33
2022-08-16T20:45:50.852Z,61.04
2022-08-16T20:48:17.340Z,61.74
2022-08-16T20:50:45.032Z,62.01
2022-08-16T20:53:11.850Z,62.47
2022-08-16T20:55:40.066Z,61.78
2022-08-16T20:58:06.633Z,62.30
2022-08-16T21:00:33.626Z,62.39
2022-08-16T21:03:01.364Z,63.71
2022-08-16T21:05:31.761Z,63.75
2022-08-16T21:07:58.433Z,63.36
2022-08-16T21:10:24.989Z,64.19
2022-08-16T21:13:02.855Z,63.93
2022-08-16T21:15:32.758Z,63.17
2022-08-16T21:17:59.945Z,64.68
2022-08-16T21:20:28.010Z,63.82
2022-08-16T21:23:03.504Z,63.28
2022-08-16T21:25:34.858Z,62.88
2022-08-16T21:28:38.990Z,63.91
2022-08-16T21:30:50.101Z,64.79
2022-08-16T21:33:18.553Z,64.50
2022-08-16T21:35:47.037Z,64.99
2022-08-16T21:38:28.696Z,65.74
2022-08-16T21:40:57.186Z,65.46
2022-08-16T21:43:25.349Z,64.10
2022-08-16T21:45:56.014Z,64.56
2022-08-16T21:48:34.683Z,65.79
2022-08-16T21:51:08.320Z,65.47
2022-08-16T21:53:35.365Z,65.02
2022-08-16T21:56:02.792Z,65.54
2022-08-16T21:58:30.756Z,66.35
2022-08-16T22:00:57.547Z,68.63
2022-08-16T22:03:24.359Z,68.02
2022-08-16T22:05:59.931Z,68.16
2022-08-16T22:08:46.733Z,67.96
2022-08-16T22:11:18.362Z,67.07
2022-08-16T22:13:56.457Z,67.12
2022-08-16T22:16:27.046Z,67.27
2022-08-16T22:18:53.697Z,67.80
2022-08-16T22:21:20.438Z,67.44
2022-08-16T22:23:57.735Z,67.39
2022-08-16T22:26:32.080Z,66.90
2022-08-16T22:29:04.522Z,69.22
2022-08-16T22:31:31.365Z,69.68
2022-08-16T22:33:58.570Z,69.03
2022-08-16T22:36:28.438Z,68.21
2022-08-16T22:39:01.324Z,68.11
2022-08-16T22:41:31.740Z,69.46
2022-08-16T22:43:59.478Z,68.92
2022-08-16T22:46:26.069Z,71.50
2022-08-16T22:48:52.907Z,72.11
2022-08-16T22:51:22.159Z,72.60
2022-08-16T22:53:48.770Z,73.93
2022-08-16T22:56:18.223Z,72.91
2022-08-16T22:58:46.241Z,71.57
2022-08-16T23:01:13.745Z,71.75
2022-08-16T23:03:40.948Z,73.74
2022-08-16T23:06:08.693Z,73.09
2022-08-16T23:08:39.205Z,72.42
2022-08-16T23:11:10.407Z,72.57
2022-08-16T23:13:38.044Z,72.08
2022-08-16T23:16:21.415Z,72.46
2022-08-16T23:18:49.552Z,74.86
2022-08-16T23:21:17.586Z,75.15
2022-08-16T23:23:47.224Z,73.93
2022-08-16T23:26:46.369Z,73.29
2022-08-16T23:29:04.309Z,73.30
2022-08-16T23:31:32.471Z,74.58
2022-08-16T23:33:59.878Z,75.10
2022-08-16T23:36:26.423Z,75.03
2022-08-16T23:38:53.013Z,74.45
2022-08-16T23:41:20.034Z,74.75
2022-08-16T23:43:46.533Z,75.02
2022-08-16T23:46:19.413Z,74.68
2022-08-16T23:49:59.451Z,74.30
2022-08-16T23:51:33.203Z,74.10
2022-08-16T23:54:00.609Z,74.25
2022-08-16T23:56:27.115Z,74.15
2022-08-16T23:59:02.281Z,73.28
